Hampton Falls, NH (03844)

12:19 PM EDT on March 28, 2015 (GMT -0400)
Coburn Woods | | Change Station
CLOSE
Current Station
Personal Weather Station
Location: Hampton Falls, NH
Elevation: 115 ft
Nearby Weather Stations

Elev 115 ft 42.92 °N, 70.88 °W | Updated 13 minutes ago

Snow
Snow
32.1 °F
Feels Like 32 °F
N
3.0
Wind Variable Wind from NE
Gusts 7.0 mph

Today
High -- | Low -- °F
--% Chance of Precip.
Yesterday
High -- | Low -- °F
Precip. -- in
6:33 AM 7:04 PM
Waxing Gibbous, 63% visible
Pressure 29.80 in
Visibility 0.8 miles
Clouds Mostly Cloudy 1500 ft
Overcast 2000 ft
Windchill 32 °F
Dew Point 30 °F
Humidity 92%
Rainfall 0.04 in
Snow Depth Not available.
UV 2 out of 12
Pollen .60 out of 12
Air Quality Not available.
Flu Activity Not available.
METAR KPSM 281558Z 35010KT 3/4SM R34/P6000FT -SN BR BKN015 OVC020 00/M02 A2979 RMK AO2A SLP091 P0000 T10041021

More Conditions Fewer Conditions

Pressure 29.80 in
Visibility 0.8 miles
Clouds Mostly Cloudy 1500 ft
Overcast 2000 ft
Windchill 32 °F
Dew Point 30 °F
Humidity 92%
Rainfall 0.04 in
Snow Depth Not available.
UV 2 out of 12
Pollen .60 out of 12
Air Quality Not available.
Flu Activity Not available.
METAR KPSM 281558Z 35010KT 3/4SM R34/P6000FT -SN BR BKN015 OVC020 00/M02 A2979 RMK AO2A SLP091 P0000 T10041021

More Conditions Fewer Conditions

10-Day Weather Forecast

Almanac

Astronomy

Mar. 28, 2015 Rise Set
Actual Time
Civil Twilight
Nautical Twilight
Astronomical Twilight
Moon
Length of Visible Light
Length of Day
Tomorrow will be .
, % of the Moon is Illuminated

Today's Extremes

State Highs State Lows

Community

WunderPhotos

Upload Photos

1,809,016 photos uploaded!

WunderBlogs® & News

Nearby

Air Quality

  Air Quality AQ Index Pollutant
Not available.

Snow Depth

Station Depth Elevation

Earthquake Activity

City Distance Mag. Time & Date
Minimum magnitude displayed is 2.5.

Coastal Water Temperatures

Place Temperature

Stations

Nearby Weather Stations

Station Location Temp. Windchill Dew Point Humidity Wind Precip. Elev Updated Type